sensor_id;sensor_type;location;lat;lon;timestamp;P1;durP1;ratioP1;P2;durP2;ratioP2
13057;SDS011;6595;49.578;11.012;2022-08-04T00:00:24;3.2;;;3.0;;
13057;SDS011;6595;49.578;11.012;2022-08-04T00:02:25;3.6;;;3.3;;
13057;SDS011;6595;49.578;11.012;2022-08-04T00:04:26;3.6;;;3.3;;
13057;SDS011;6595;49.578;11.012;2022-08-04T00:06:29;3.3;;;3.0;;
13057;SDS011;6595;49.578;11.012;2022-08-04T00:08:30;3.2;;;3.0;;
13057;SDS011;6595;49.578;11.012;2022-08-04T00:10:23;3.2;;;3.0;;
13057;SDS011;6595;49.578;11.012;2022-08-04T00:12:24;3.0;;;2.8;;
13057;SDS011;6595;49.578;11.012;2022-08-04T00:14:24;3.3;;;3.1;;
13057;SDS011;6595;49.578;11.012;2022-08-04T00:16:23;3.3;;;3.1;;
13057;SDS011;6595;49.578;11.012;2022-08-04T00:18:25;4.0;;;3.1;;
13057;SDS011;6595;49.578;11.012;2022-08-04T00:20:24;3.3;;;3.0;;
13057;SDS011;6595;49.578;11.012;2022-08-04T00:22:25;3.9;;;3.0;;
13057;SDS011;6595;49.578;11.012;2022-08-04T00:24:24;3.3;;;3.0;;
13057;SDS011;6595;49.578;11.012;2022-08-04T00:26:23;3.3;;;3.0;;
13057;SDS011;6595;49.578;11.012;2022-08-04T00:28:23;3.0;;;2.8;;
13057;SDS011;6595;49.578;11.012;2022-08-04T00:30:23;3.2;;;2.9;;
13057;SDS011;6595;49.578;11.012;2022-08-04T00:32:24;3.3;;;3.0;;
13057;SDS011;6595;49.578;11.012;2022-08-04T00:34:24;3.3;;;3.0;;
13057;SDS011;6595;49.578;11.012;2022-08-04T00:36:24;3.6;;;3.1;;
13057;SDS011;6595;49.578;11.012;2022-08-04T00:38:24;3.3;;;3.1;;
13057;SDS011;6595;49.578;11.012;2022-08-04T00:40:26;3.3;;;3.1;;
13057;SDS011;6595;49.578;11.012;2022-08-04T00:42:26;3.6;;;3.3;;
13057;SDS011;6595;49.578;11.012;2022-08-04T00:44:27;3.7;;;3.3;;
13057;SDS011;6595;49.578;11.012;2022-08-04T00:46:26;4.8;;;3.2;;
13057;SDS011;6595;49.578;11.012;2022-08-04T00:48:26;3.5;;;3.3;;
13057;SDS011;6595;49.578;11.012;2022-08-04T00:50:24;3.0;;;2.8;;
13057;SDS011;6595;49.578;11.012;2022-08-04T00:52:27;3.3;;;3.0;;
13057;SDS011;6595;49.578;11.012;2022-08-04T00:54:25;3.3;;;3.0;;
13057;SDS011;6595;49.578;11.012;2022-08-04T00:56:30;3.2;;;3.0;;
13057;SDS011;6595;49.578;11.012;2022-08-04T00:58:27;3.2;;;3.0;;
13057;SDS011;6595;49.578;11.012;2022-08-04T01:00:24;3.3;;;3.1;;
13057;SDS011;6595;49.578;11.012;2022-08-04T01:02:27;3.0;;;2.8;;
13057;SDS011;6595;49.578;11.012;2022-08-04T01:04:26;3.0;;;2.8;;
13057;SDS011;6595;49.578;11.012;2022-08-04T01:06:27;3.8;;;3.0;;
13057;SDS011;6595;49.578;11.012;2022-08-04T01:08:27;3.0;;;2.8;;
13057;SDS011;6595;49.578;11.012;2022-08-04T01:10:27;3.2;;;2.9;;
13057;SDS011;6595;49.578;11.012;2022-08-04T01:12:29;3.2;;;2.9;;
13057;SDS011;6595;49.578;11.012;2022-08-04T01:14:28;3.3;;;3.1;;
13057;SDS011;6595;49.578;11.012;2022-08-04T01:16:24;3.7;;;3.4;;
13057;SDS011;6595;49.578;11.012;2022-08-04T01:18:26;3.8;;;3.5;;
13057;SDS011;6595;49.578;11.012;2022-08-04T01:20:24;3.8;;;3.5;;
13057;SDS011;6595;49.578;11.012;2022-08-04T01:22:28;3.4;;;3.1;;
13057;SDS011;6595;49.578;11.012;2022-08-04T01:24:25;3.4;;;3.1;;
13057;SDS011;6595;49.578;11.012;2022-08-04T01:26:36;3.5;;;3.2;;
13057;SDS011;6595;49.578;11.012;2022-08-04T01:28:28;3.5;;;3.2;;
13057;SDS011;6595;49.578;11.012;2022-08-04T01:30:24;3.1;;;2.9;;
13057;SDS011;6595;49.578;11.012;2022-08-04T01:32:24;6.3;;;3.4;;
13057;SDS011;6595;49.578;11.012;2022-08-04T01:34:23;4.6;;;3.1;;
13057;SDS011;6595;49.578;11.012;2022-08-04T01:36:24;3.4;;;3.1;;
13057;SDS011;6595;49.578;11.012;2022-08-04T01:38:24;3.3;;;3.0;;
13057;SDS011;6595;49.578;11.012;2022-08-04T01:40:24;3.3;;;3.0;;
13057;SDS011;6595;49.578;11.012;2022-08-04T01:42:24;3.8;;;3.2;;
13057;SDS011;6595;49.578;11.012;2022-08-04T01:44:24;3.0;;;2.8;;
13057;SDS011;6595;49.578;11.012;2022-08-04T01:46:24;3.7;;;2.9;;
13057;SDS011;6595;49.578;11.012;2022-08-04T01:48:24;3.7;;;2.9;;
13057;SDS011;6595;49.578;11.012;2022-08-04T01:50:24;3.9;;;3.2;;
13057;SDS011;6595;49.578;11.012;2022-08-04T01:52:23;3.9;;;3.2;;
13057;SDS011;6595;49.578;11.012;2022-08-04T01:54:24;3.3;;;3.0;;
13057;SDS011;6595;49.578;11.012;2022-08-04T01:56:23;3.3;;;3.0;;
13057;SDS011;6595;49.578;11.012;2022-08-04T01:58:24;3.3;;;3.0;;
13057;SDS011;6595;49.578;11.012;2022-08-04T02:00:24;3.4;;;3.2;;
13057;SDS011;6595;49.578;11.012;2022-08-04T02:02:23;3.3;;;2.9;;
13057;SDS011;6595;49.578;11.012;2022-08-04T02:04:23;3.3;;;2.9;;
13057;SDS011;6595;49.578;11.012;2022-08-04T02:06:26;3.8;;;3.4;;
13057;SDS011;6595;49.578;11.012;2022-08-04T02:08:26;3.4;;;3.1;;
13057;SDS011;6595;49.578;11.012;2022-08-04T02:10:26;3.0;;;2.8;;
13057;SDS011;6595;49.578;11.012;2022-08-04T02:12:24;3.0;;;2.8;;
13057;SDS011;6595;49.578;11.012;2022-08-04T02:14:24;3.1;;;2.9;;
13057;SDS011;6595;49.578;11.012;2022-08-04T02:16:28;3.2;;;3.0;;
13057;SDS011;6595;49.578;11.012;2022-08-04T02:18:24;3.2;;;3.0;;
13057;SDS011;6595;49.578;11.012;2022-08-04T02:20:24;3.5;;;3.2;;
13057;SDS011;6595;49.578;11.012;2022-08-04T02:22:23;3.3;;;3.1;;
13057;SDS011;6595;49.578;11.012;2022-08-04T02:24:24;3.5;;;3.2;;
13057;SDS011;6595;49.578;11.012;2022-08-04T02:26:23;3.5;;;3.2;;
13057;SDS011;6595;49.578;11.012;2022-08-04T02:28:27;3.4;;;3.2;;
13057;SDS011;6595;49.578;11.012;2022-08-04T02:30:25;3.4;;;3.2;;
13057;SDS011;6595;49.578;11.012;2022-08-04T02:32:24;3.8;;;3.1;;
13057;SDS011;6595;49.578;11.012;2022-08-04T02:34:24;4.8;;;3.2;;
13057;SDS011;6595;49.578;11.012;2022-08-04T02:36:26;3.1;;;2.8;;
13057;SDS011;6595;49.578;11.012;2022-08-04T02:38:26;3.7;;;3.4;;
13057;SDS011;6595;49.578;11.012;2022-08-04T02:40:23;3.7;;;3.4;;
13057;SDS011;6595;49.578;11.012;2022-08-04T02:42:23;3.9;;;3.0;;
13057;SDS011;6595;49.578;11.012;2022-08-04T02:44:24;3.1;;;2.9;;
13057;SDS011;6595;49.578;11.012;2022-08-04T02:46:23;3.1;;;2.8;;
13057;SDS011;6595;49.578;11.012;2022-08-04T02:48:23;3.1;;;2.8;;
13057;SDS011;6595;49.578;11.012;2022-08-04T02:50:23;3.3;;;3.0;;
13057;SDS011;6595;49.578;11.012;2022-08-04T02:52:24;3.5;;;3.3;;
13057;SDS011;6595;49.578;11.012;2022-08-04T02:54:24;3.4;;;3.2;;
13057;SDS011;6595;49.578;11.012;2022-08-04T02:56:30;4.9;;;3.3;;
13057;SDS011;6595;49.578;11.012;2022-08-04T02:58:24;4.9;;;3.3;;
13057;SDS011;6595;49.578;11.012;2022-08-04T03:00:24;3.4;;;3.1;;
13057;SDS011;6595;49.578;11.012;2022-08-04T03:02:28;3.4;;;3.1;;
13057;SDS011;6595;49.578;11.012;2022-08-04T03:04:26;3.6;;;3.3;;
13057;SDS011;6595;49.578;11.012;2022-08-04T03:08:29;5.1;;;3.3;;
13057;SDS011;6595;49.578;11.012;2022-08-04T03:10:30;3.5;;;3.2;;
13057;SDS011;6595;49.578;11.012;2022-08-04T03:12:29;3.7;;;3.4;;
13057;SDS011;6595;49.578;11.012;2022-08-04T03:14:27;5.3;;;3.3;;
13057;SDS011;6595;49.578;11.012;2022-08-04T03:16:29;5.3;;;3.3;;
13057;SDS011;6595;49.578;11.012;2022-08-04T03:18:32;3.6;;;3.3;;
13057;SDS011;6595;49.578;11.012;2022-08-04T03:22:28;3.3;;;3.1;;
13057;SDS011;6595;49.578;11.012;2022-08-04T03:24:28;3.3;;;3.1;;
13057;SDS011;6595;49.578;11.012;2022-08-04T03:26:28;4.4;;;3.6;;
13057;SDS011;6595;49.578;11.012;2022-08-04T03:28:37;4.4;;;3.6;;
13057;SDS011;6595;49.578;11.012;2022-08-04T03:30:24;3.4;;;3.2;;
13057;SDS011;6595;49.578;11.012;2022-08-04T03:34:27;3.6;;;3.3;;
13057;SDS011;6595;49.578;11.012;2022-08-04T03:36:33;3.6;;;3.3;;
13057;SDS011;6595;49.578;11.012;2022-08-04T03:40:27;4.0;;;3.2;;
13057;SDS011;6595;49.578;11.012;2022-08-04T03:42:31;4.9;;;3.4;;
13057;SDS011;6595;49.578;11.012;2022-08-04T03:44:29;3.4;;;3.2;;
13057;SDS011;6595;49.578;11.012;2022-08-04T03:46:29;3.4;;;3.2;;
13057;SDS011;6595;49.578;11.012;2022-08-04T03:48:32;3.3;;;3.1;;
13057;SDS011;6595;49.578;11.012;2022-08-04T03:50:36;3.4;;;3.2;;
13057;SDS011;6595;49.578;11.012;2022-08-04T03:52:32;3.9;;;3.6;;
13057;SDS011;6595;49.578;11.012;2022-08-04T03:56:28;4.3;;;3.5;;
13057;SDS011;6595;49.578;11.012;2022-08-04T03:58:30;3.9;;;3.6;;
13057;SDS011;6595;49.578;11.012;2022-08-04T04:00:25;3.7;;;3.4;;
13057;SDS011;6595;49.578;11.012;2022-08-04T04:04:30;3.7;;;3.2;;
13057;SDS011;6595;49.578;11.012;2022-08-04T04:06:29;3.7;;;3.2;;
13057;SDS011;6595;49.578;11.012;2022-08-04T04:08:28;3.5;;;3.3;;
13057;SDS011;6595;49.578;11.012;2022-08-04T04:10:28;5.0;;;4.1;;
13057;SDS011;6595;49.578;11.012;2022-08-04T04:12:27;4.0;;;3.6;;
13057;SDS011;6595;49.578;11.012;2022-08-04T04:14:28;4.0;;;3.6;;
13057;SDS011;6595;49.578;11.012;2022-08-04T04:16:27;4.8;;;3.8;;
13057;SDS011;6595;49.578;11.012;2022-08-04T04:18:29;4.7;;;3.5;;
13057;SDS011;6595;49.578;11.012;2022-08-04T04:20:30;3.4;;;3.1;;
13057;SDS011;6595;49.578;11.012;2022-08-04T04:22:28;3.6;;;3.4;;
13057;SDS011;6595;49.578;11.012;2022-08-04T04:24:32;3.6;;;3.4;;
13057;SDS011;6595;49.578;11.012;2022-08-04T04:26:28;3.8;;;3.4;;
13057;SDS011;6595;49.578;11.012;2022-08-04T04:28:40;15.9;;;4.1;;
13057;SDS011;6595;49.578;11.012;2022-08-04T04:30:24;5.5;;;3.3;;
13057;SDS011;6595;49.578;11.012;2022-08-04T04:32:26;5.5;;;3.3;;
13057;SDS011;6595;49.578;11.012;2022-08-04T04:34:28;5.2;;;3.7;;
13057;SDS011;6595;49.578;11.012;2022-08-04T04:36:24;4.0;;;3.6;;
13057;SDS011;6595;49.578;11.012;2022-08-04T04:38:29;6.9;;;3.7;;
13057;SDS011;6595;49.578;11.012;2022-08-04T04:40:27;6.5;;;3.7;;
13057;SDS011;6595;49.578;11.012;2022-08-04T04:42:27;3.9;;;3.6;;
13057;SDS011;6595;49.578;11.012;2022-08-04T04:46:28;3.9;;;3.6;;
13057;SDS011;6595;49.578;11.012;2022-08-04T04:48:28;3.7;;;3.4;;
13057;SDS011;6595;49.578;11.012;2022-08-04T04:50:27;3.1;;;2.9;;
13057;SDS011;6595;49.578;11.012;2022-08-04T04:52:25;3.8;;;3.2;;
13057;SDS011;6595;49.578;11.012;2022-08-04T04:54:27;3.8;;;3.2;;
13057;SDS011;6595;49.578;11.012;2022-08-04T04:56:26;4.1;;;3.2;;
13057;SDS011;6595;49.578;11.012;2022-08-04T04:58:23;4.0;;;3.2;;
13057;SDS011;6595;49.578;11.012;2022-08-04T05:00:24;4.0;;;3.2;;
13057;SDS011;6595;49.578;11.012;2022-08-04T05:04:28;6.6;;;3.7;;
13057;SDS011;6595;49.578;11.012;2022-08-04T05:06:28;6.1;;;3.5;;
13057;SDS011;6595;49.578;11.012;2022-08-04T05:10:28;12.1;;;4.3;;
13057;SDS011;6595;49.578;11.012;2022-08-04T05:12:28;4.5;;;3.6;;
13057;SDS011;6595;49.578;11.012;2022-08-04T05:14:24;4.5;;;3.6;;
13057;SDS011;6595;49.578;11.012;2022-08-04T05:16:24;3.9;;;3.5;;
13057;SDS011;6595;49.578;11.012;2022-08-04T05:18:25;9.2;;;5.9;;
13057;SDS011;6595;49.578;11.012;2022-08-04T05:20:24;9.2;;;5.9;;
13057;SDS011;6595;49.578;11.012;2022-08-04T05:22:25;5.5;;;3.5;;
13057;SDS011;6595;49.578;11.012;2022-08-04T05:24:23;5.5;;;3.5;;
13057;SDS011;6595;49.578;11.012;2022-08-04T05:26:25;7.0;;;3.5;;
13057;SDS011;6595;49.578;11.012;2022-08-04T05:28:24;7.7;;;3.6;;
13057;SDS011;6595;49.578;11.012;2022-08-04T05:30:24;7.7;;;3.6;;
13057;SDS011;6595;49.578;11.012;2022-08-04T05:32:25;7.0;;;3.4;;
13057;SDS011;6595;49.578;11.012;2022-08-04T05:34:25;5.2;;;3.6;;
13057;SDS011;6595;49.578;11.012;2022-08-04T05:36:25;6.4;;;3.5;;
13057;SDS011;6595;49.578;11.012;2022-08-04T05:38:25;6.4;;;3.5;;
13057;SDS011;6595;49.578;11.012;2022-08-04T05:40:23;12.6;;;4.0;;
13057;SDS011;6595;49.578;11.012;2022-08-04T05:42:24;12.6;;;4.0;;
13057;SDS011;6595;49.578;11.012;2022-08-04T05:44:24;9.5;;;3.9;;
13057;SDS011;6595;49.578;11.012;2022-08-04T05:46:24;12.5;;;3.8;;
13057;SDS011;6595;49.578;11.012;2022-08-04T05:48:23;9.7;;;3.3;;
13057;SDS011;6595;49.578;11.012;2022-08-04T05:50:23;5.7;;;3.4;;
13057;SDS011;6595;49.578;11.012;2022-08-04T05:52:23;5.7;;;3.4;;
13057;SDS011;6595;49.578;11.012;2022-08-04T05:54:23;5.6;;;3.9;;
13057;SDS011;6595;49.578;11.012;2022-08-04T05:56:23;3.6;;;3.2;;
13057;SDS011;6595;49.578;11.012;2022-08-04T05:58:23;3.6;;;3.2;;
13057;SDS011;6595;49.578;11.012;2022-08-04T06:00:23;6.0;;;3.0;;
13057;SDS011;6595;49.578;11.012;2022-08-04T06:02:23;3.2;;;2.9;;
13057;SDS011;6595;49.578;11.012;2022-08-04T06:04:25;10.6;;;2.8;;
13057;SDS011;6595;49.578;11.012;2022-08-04T06:06:24;4.7;;;3.1;;
13057;SDS011;6595;49.578;11.012;2022-08-04T06:08:24;4.7;;;3.1;;
13057;SDS011;6595;49.578;11.012;2022-08-04T06:10:24;4.2;;;2.7;;
13057;SDS011;6595;49.578;11.012;2022-08-04T06:12:24;11.3;;;2.5;;
13057;SDS011;6595;49.578;11.012;2022-08-04T06:14:24;3.1;;;2.5;;
13057;SDS011;6595;49.578;11.012;2022-08-04T06:16:24;5.1;;;3.3;;
13057;SDS011;6595;49.578;11.012;2022-08-04T06:18:24;4.4;;;2.8;;
13057;SDS011;6595;49.578;11.012;2022-08-04T06:20:25;14.9;;;2.9;;
13057;SDS011;6595;49.578;11.012;2022-08-04T06:22:23;14.9;;;2.9;;
13057;SDS011;6595;49.578;11.012;2022-08-04T06:24:24;3.1;;;2.8;;
13057;SDS011;6595;49.578;11.012;2022-08-04T06:26:24;3.1;;;2.8;;
13057;SDS011;6595;49.578;11.012;2022-08-04T06:28:23;7.2;;;2.7;;
13057;SDS011;6595;49.578;11.012;2022-08-04T06:30:23;2.8;;;2.5;;
13057;SDS011;6595;49.578;11.012;2022-08-04T06:32:23;2.9;;;2.6;;
13057;SDS011;6595;49.578;11.012;2022-08-04T06:34:24;3.9;;;2.7;;
13057;SDS011;6595;49.578;11.012;2022-08-04T06:36:24;3.6;;;2.6;;
13057;SDS011;6595;49.578;11.012;2022-08-04T06:38:24;4.4;;;3.1;;
13057;SDS011;6595;49.578;11.012;2022-08-04T06:40:23;4.4;;;3.1;;
13057;SDS011;6595;49.578;11.012;2022-08-04T06:42:24;6.6;;;2.5;;
13057;SDS011;6595;49.578;11.012;2022-08-04T06:44:23;2.9;;;2.3;;
13057;SDS011;6595;49.578;11.012;2022-08-04T06:46:24;2.6;;;2.1;;
13057;SDS011;6595;49.578;11.012;2022-08-04T06:48:24;2.6;;;2.1;;
13057;SDS011;6595;49.578;11.012;2022-08-04T06:50:24;5.9;;;2.9;;
13057;SDS011;6595;49.578;11.012;2022-08-04T06:52:24;3.0;;;2.6;;
13057;SDS011;6595;49.578;11.012;2022-08-04T06:54:23;5.5;;;2.5;;
13057;SDS011;6595;49.578;11.012;2022-08-04T06:56:23;4.1;;;2.6;;
13057;SDS011;6595;49.578;11.012;2022-08-04T06:58:23;2.8;;;2.5;;
13057;SDS011;6595;49.578;11.012;2022-08-04T07:00:23;2.8;;;2.5;;
13057;SDS011;6595;49.578;11.012;2022-08-04T07:02:24;2.8;;;2.6;;
13057;SDS011;6595;49.578;11.012;2022-08-04T07:04:24;4.6;;;2.6;;
13057;SDS011;6595;49.578;11.012;2022-08-04T07:06:23;3.1;;;2.4;;
13057;SDS011;6595;49.578;11.012;2022-08-04T07:08:23;12.9;;;4.6;;
13057;SDS011;6595;49.578;11.012;2022-08-04T07:10:23;12.9;;;4.6;;
13057;SDS011;6595;49.578;11.012;2022-08-04T07:12:23;4.7;;;2.5;;
13057;SDS011;6595;49.578;11.012;2022-08-04T07:14:24;4.7;;;2.5;;
13057;SDS011;6595;49.578;11.012;2022-08-04T07:16:24;6.2;;;3.2;;
13057;SDS011;6595;49.578;11.012;2022-08-04T07:18:24;6.2;;;3.2;;
13057;SDS011;6595;49.578;11.012;2022-08-04T07:20:24;4.6;;;2.9;;
13057;SDS011;6595;49.578;11.012;2022-08-04T07:22:24;3.6;;;2.5;;
13057;SDS011;6595;49.578;11.012;2022-08-04T07:24:28;3.6;;;2.5;;
13057;SDS011;6595;49.578;11.012;2022-08-04T07:26:27;4.7;;;2.6;;
13057;SDS011;6595;49.578;11.012;2022-08-04T07:28:24;4.7;;;2.6;;
13057;SDS011;6595;49.578;11.012;2022-08-04T07:30:24;6.0;;;2.7;;
13057;SDS011;6595;49.578;11.012;2022-08-04T07:32:24;2.9;;;2.6;;
13057;SDS011;6595;49.578;11.012;2022-08-04T07:34:23;2.9;;;2.6;;
13057;SDS011;6595;49.578;11.012;2022-08-04T07:36:24;4.5;;;2.6;;
13057;SDS011;6595;49.578;11.012;2022-08-04T07:38:23;4.5;;;2.6;;
13057;SDS011;6595;49.578;11.012;2022-08-04T07:40:23;4.6;;;2.7;;
13057;SDS011;6595;49.578;11.012;2022-08-04T07:42:23;4.2;;;2.5;;
13057;SDS011;6595;49.578;11.012;2022-08-04T07:44:25;4.2;;;2.5;;
13057;SDS011;6595;49.578;11.012;2022-08-04T07:46:23;11.1;;;6.3;;
13057;SDS011;6595;49.578;11.012;2022-08-04T07:48:24;6.6;;;3.8;;
13057;SDS011;6595;49.578;11.012;2022-08-04T07:50:23;3.3;;;2.5;;
13057;SDS011;6595;49.578;11.012;2022-08-04T07:52:24;22.7;;;3.9;;
13057;SDS011;6595;49.578;11.012;2022-08-04T07:54:23;22.7;;;3.9;;
13057;SDS011;6595;49.578;11.012;2022-08-04T07:56:23;5.1;;;2.4;;
13057;SDS011;6595;49.578;11.012;2022-08-04T07:58:23;3.3;;;2.3;;
13057;SDS011;6595;49.578;11.012;2022-08-04T08:00:23;3.8;;;2.3;;
13057;SDS011;6595;49.578;11.012;2022-08-04T08:02:23;5.5;;;2.8;;
13057;SDS011;6595;49.578;11.012;2022-08-04T08:04:24;5.5;;;2.8;;
13057;SDS011;6595;49.578;11.012;2022-08-04T08:06:23;3.3;;;2.3;;
13057;SDS011;6595;49.578;11.012;2022-08-04T08:08:23;3.2;;;2.4;;
13057;SDS011;6595;49.578;11.012;2022-08-04T08:10:24;5.8;;;3.9;;
13057;SDS011;6595;49.578;11.012;2022-08-04T08:12:24;4.3;;;2.7;;
13057;SDS011;6595;49.578;11.012;2022-08-04T08:14:23;4.3;;;2.7;;
13057;SDS011;6595;49.578;11.012;2022-08-04T08:16:23;4.3;;;3.5;;
13057;SDS011;6595;49.578;11.012;2022-08-04T08:18:23;3.1;;;2.5;;
13057;SDS011;6595;49.578;11.012;2022-08-04T08:20:23;6.6;;;5.2;;
13057;SDS011;6595;49.578;11.012;2022-08-04T08:22:24;6.6;;;5.2;;
13057;SDS011;6595;49.578;11.012;2022-08-04T08:24:24;3.9;;;2.4;;
13057;SDS011;6595;49.578;11.012;2022-08-04T08:26:23;3.9;;;2.4;;
13057;SDS011;6595;49.578;11.012;2022-08-04T08:28:23;11.6;;;6.6;;
13057;SDS011;6595;49.578;11.012;2022-08-04T08:30:23;11.6;;;6.6;;
13057;SDS011;6595;49.578;11.012;2022-08-04T08:32:23;3.4;;;2.1;;
13057;SDS011;6595;49.578;11.012;2022-08-04T08:34:24;5.5;;;2.6;;
13057;SDS011;6595;49.578;11.012;2022-08-04T08:36:25;5.5;;;2.6;;
13057;SDS011;6595;49.578;11.012;2022-08-04T08:38:27;5.2;;;2.9;;
13057;SDS011;6595;49.578;11.012;2022-08-04T08:40:26;3.0;;;2.3;;
13057;SDS011;6595;49.578;11.012;2022-08-04T08:44:29;2.4;;;2.0;;
13057;SDS011;6595;49.578;11.012;2022-08-04T08:46:35;2.4;;;2.0;;
13057;SDS011;6595;49.578;11.012;2022-08-04T08:48:32;22.3;;;2.8;;
13057;SDS011;6595;49.578;11.012;2022-08-04T08:50:29;4.6;;;2.6;;
13057;SDS011;6595;49.578;11.012;2022-08-04T08:52:26;4.4;;;2.4;;
13057;SDS011;6595;49.578;11.012;2022-08-04T08:54:27;4.4;;;2.4;;
13057;SDS011;6595;49.578;11.012;2022-08-04T08:56:26;4.3;;;2.1;;
13057;SDS011;6595;49.578;11.012;2022-08-04T09:00:25;2.4;;;2.2;;
13057;SDS011;6595;49.578;11.012;2022-08-04T09:02:32;2.4;;;2.2;;
13057;SDS011;6595;49.578;11.012;2022-08-04T09:08:28;4.0;;;2.9;;
13057;SDS011;6595;49.578;11.012;2022-08-04T09:10:25;2.4;;;2.2;;
13057;SDS011;6595;49.578;11.012;2022-08-04T09:12:25;3.5;;;2.1;;
13057;SDS011;6595;49.578;11.012;2022-08-04T09:14:25;3.5;;;2.1;;
13057;SDS011;6595;49.578;11.012;2022-08-04T09:16:26;4.0;;;1.9;;
13057;SDS011;6595;49.578;11.012;2022-08-04T09:18:25;3.3;;;3.0;;
13057;SDS011;6595;49.578;11.012;2022-08-04T09:20:27;3.8;;;2.3;;
13057;SDS011;6595;49.578;11.012;2022-08-04T09:22:24;3.8;;;2.3;;
13057;SDS011;6595;49.578;11.012;2022-08-04T09:24:26;3.2;;;2.1;;
13057;SDS011;6595;49.578;11.012;2022-08-04T09:26:26;2.4;;;2.2;;
13057;SDS011;6595;49.578;11.012;2022-08-04T09:28:24;2.6;;;2.4;;
13057;SDS011;6595;49.578;11.012;2022-08-04T09:30:26;2.2;;;2.0;;
13057;SDS011;6595;49.578;11.012;2022-08-04T09:32:26;2.2;;;2.0;;
13057;SDS011;6595;49.578;11.012;2022-08-04T09:34:26;5.3;;;2.0;;
13057;SDS011;6595;49.578;11.012;2022-08-04T09:36:26;3.3;;;2.0;;
13057;SDS011;6595;49.578;11.012;2022-08-04T09:38:26;5.6;;;2.0;;
13057;SDS011;6595;49.578;11.012;2022-08-04T09:40:25;5.6;;;2.0;;
13057;SDS011;6595;49.578;11.012;2022-08-04T09:42:28;3.6;;;2.5;;
13057;SDS011;6595;49.578;11.012;2022-08-04T09:44:25;3.6;;;2.5;;
13057;SDS011;6595;49.578;11.012;2022-08-04T09:46:25;2.3;;;2.2;;
13057;SDS011;6595;49.578;11.012;2022-08-04T09:48:26;3.2;;;2.0;;
13057;SDS011;6595;49.578;11.012;2022-08-04T09:50:27;3.2;;;2.0;;
13057;SDS011;6595;49.578;11.012;2022-08-04T09:52:26;5.6;;;2.6;;
13057;SDS011;6595;49.578;11.012;2022-08-04T09:54:24;2.1;;;2.0;;
13057;SDS011;6595;49.578;11.012;2022-08-04T09:56:25;1.9;;;1.8;;
13057;SDS011;6595;49.578;11.012;2022-08-04T09:58:27;1.9;;;1.8;;
13057;SDS011;6595;49.578;11.012;2022-08-04T10:00:24;5.2;;;2.4;;
13057;SDS011;6595;49.578;11.012;2022-08-04T10:02:24;5.2;;;2.4;;
13057;SDS011;6595;49.578;11.012;2022-08-04T10:04:25;3.3;;;2.0;;
13057;SDS011;6595;49.578;11.012;2022-08-04T10:06:31;5.3;;;2.0;;
13057;SDS011;6595;49.578;11.012;2022-08-04T10:08:28;5.3;;;2.0;;
13057;SDS011;6595;49.578;11.012;2022-08-04T10:10:28;5.3;;;2.0;;
13057;SDS011;6595;49.578;11.012;2022-08-04T10:12:27;1.9;;;1.8;;
13057;SDS011;6595;49.578;11.012;2022-08-04T10:14:29;2.0;;;1.9;;
13057;SDS011;6595;49.578;11.012;2022-08-04T10:16:30;1.9;;;1.8;;
13057;SDS011;6595;49.578;11.012;2022-08-04T10:18:27;1.8;;;1.7;;
13057;SDS011;6595;49.578;11.012;2022-08-04T10:20:28;1.8;;;1.7;;
13057;SDS011;6595;49.578;11.012;2022-08-04T10:22:25;4.8;;;2.1;;
13057;SDS011;6595;49.578;11.012;2022-08-04T10:24:29;2.3;;;1.7;;
13057;SDS011;6595;49.578;11.012;2022-08-04T10:26:26;1.8;;;1.7;;
13057;SDS011;6595;49.578;11.012;2022-08-04T10:28:24;1.8;;;1.7;;
13057;SDS011;6595;49.578;11.012;2022-08-04T10:30:24;1.8;;;1.7;;
13057;SDS011;6595;49.578;11.012;2022-08-04T10:32:25;3.3;;;1.7;;
13057;SDS011;6595;49.578;11.012;2022-08-04T10:34:25;1.9;;;1.8;;
13057;SDS011;6595;49.578;11.012;2022-08-04T10:36:25;1.9;;;1.8;;
13057;SDS011;6595;49.578;11.012;2022-08-04T10:38:24;1.9;;;1.8;;
13057;SDS011;6595;49.578;11.012;2022-08-04T10:40:25;1.9;;;1.8;;
13057;SDS011;6595;49.578;11.012;2022-08-04T10:42:25;2.2;;;1.8;;
13057;SDS011;6595;49.578;11.012;2022-08-04T10:44:26;1.7;;;1.7;;
13057;SDS011;6595;49.578;11.012;2022-08-04T10:46:26;2.8;;;1.8;;
13057;SDS011;6595;49.578;11.012;2022-08-04T10:48:26;2.8;;;1.8;;
13057;SDS011;6595;49.578;11.012;2022-08-04T10:50:23;1.9;;;1.8;;
13057;SDS011;6595;49.578;11.012;2022-08-04T10:52:26;2.8;;;1.7;;
13057;SDS011;6595;49.578;11.012;2022-08-04T10:54:25;1.9;;;1.8;;
13057;SDS011;6595;49.578;11.012;2022-08-04T10:56:27;1.9;;;1.8;;
13057;SDS011;6595;49.578;11.012;2022-08-04T10:58:25;1.9;;;1.7;;
13057;SDS011;6595;49.578;11.012;2022-08-04T11:00:24;2.4;;;1.8;;
13057;SDS011;6595;49.578;11.012;2022-08-04T11:02:26;1.9;;;1.7;;
13057;SDS011;6595;49.578;11.012;2022-08-04T11:04:24;1.9;;;1.7;;
13057;SDS011;6595;49.578;11.012;2022-08-04T11:06:24;1.6;;;1.5;;
13057;SDS011;6595;49.578;11.012;2022-08-04T11:08:24;1.6;;;1.5;;
13057;SDS011;6595;49.578;11.012;2022-08-04T11:10:24;3.8;;;1.8;;
13057;SDS011;6595;49.578;11.012;2022-08-04T11:12:24;1.7;;;1.6;;
13057;SDS011;6595;49.578;11.012;2022-08-04T11:14:26;1.7;;;1.6;;
13057;SDS011;6595;49.578;11.012;2022-08-04T11:16:25;1.7;;;1.6;;
13057;SDS011;6595;49.578;11.012;2022-08-04T11:20:26;11.2;;;2.1;;
13057;SDS011;6595;49.578;11.012;2022-08-04T11:22:24;7.6;;;2.8;;
13057;SDS011;6595;49.578;11.012;2022-08-04T11:24:24;13.2;;;2.6;;
13057;SDS011;6595;49.578;11.012;2022-08-04T11:26:27;13.2;;;2.6;;
13057;SDS011;6595;49.578;11.012;2022-08-04T11:28:34;20.1;;;2.9;;
13057;SDS011;6595;49.578;11.012;2022-08-04T11:30:24;12.3;;;2.9;;
13057;SDS011;6595;49.578;11.012;2022-08-04T11:32:25;2.8;;;1.8;;
13057;SDS011;6595;49.578;11.012;2022-08-04T11:34:24;2.6;;;2.0;;
13057;SDS011;6595;49.578;11.012;2022-08-04T11:36:25;2.6;;;2.0;;
13057;SDS011;6595;49.578;11.012;2022-08-04T11:38:25;3.4;;;1.7;;
13057;SDS011;6595;49.578;11.012;2022-08-04T11:40:26;3.0;;;1.8;;
13057;SDS011;6595;49.578;11.012;2022-08-04T11:42:25;2.4;;;1.7;;
13057;SDS011;6595;49.578;11.012;2022-08-04T11:44:25;2.4;;;1.7;;
13057;SDS011;6595;49.578;11.012;2022-08-04T11:46:25;2.3;;;1.8;;
13057;SDS011;6595;49.578;11.012;2022-08-04T11:48:26;2.4;;;1.8;;
13057;SDS011;6595;49.578;11.012;2022-08-04T11:50:25;4.5;;;1.8;;
13057;SDS011;6595;49.578;11.012;2022-08-04T11:52:25;4.5;;;1.8;;
13057;SDS011;6595;49.578;11.012;2022-08-04T11:54:23;15.0;;;2.4;;
13057;SDS011;6595;49.578;11.012;2022-08-04T11:56:24;1.8;;;1.7;;
13057;SDS011;6595;49.578;11.012;2022-08-04T11:58:23;1.8;;;1.7;;
13057;SDS011;6595;49.578;11.012;2022-08-04T12:00:24;3.4;;;1.9;;
13057;SDS011;6595;49.578;11.012;2022-08-04T12:02:30;1.7;;;1.6;;
13057;SDS011;6595;49.578;11.012;2022-08-04T12:04:26;1.7;;;1.6;;
13057;SDS011;6595;49.578;11.012;2022-08-04T12:06:24;1.7;;;1.6;;
13057;SDS011;6595;49.578;11.012;2022-08-04T12:08:28;1.7;;;1.6;;
13057;SDS011;6595;49.578;11.012;2022-08-04T12:10:27;2.8;;;1.8;;
13057;SDS011;6595;49.578;11.012;2022-08-04T12:12:24;2.8;;;1.8;;
13057;SDS011;6595;49.578;11.012;2022-08-04T12:14:25;21.9;;;3.2;;
13057;SDS011;6595;49.578;11.012;2022-08-04T12:16:24;5.1;;;1.9;;
13057;SDS011;6595;49.578;11.012;2022-08-04T12:18:26;1.6;;;1.6;;
13057;SDS011;6595;49.578;11.012;2022-08-04T12:20:24;3.8;;;2.0;;
13057;SDS011;6595;49.578;11.012;2022-08-04T12:22:24;3.6;;;2.1;;
13057;SDS011;6595;49.578;11.012;2022-08-04T12:24:25;4.3;;;1.8;;
13057;SDS011;6595;49.578;11.012;2022-08-04T12:26:24;4.3;;;1.8;;
13057;SDS011;6595;49.578;11.012;2022-08-04T12:28:25;6.1;;;1.8;;
13057;SDS011;6595;49.578;11.012;2022-08-04T12:30:24;6.1;;;1.8;;
13057;SDS011;6595;49.578;11.012;2022-08-04T12:32:24;3.1;;;1.6;;
13057;SDS011;6595;49.578;11.012;2022-08-04T12:34:25;3.5;;;1.7;;
13057;SDS011;6595;49.578;11.012;2022-08-04T12:36:25;3.5;;;1.7;;
13057;SDS011;6595;49.578;11.012;2022-08-04T12:38:25;1.6;;;1.5;;
13057;SDS011;6595;49.578;11.012;2022-08-04T12:40:24;1.7;;;1.6;;
13057;SDS011;6595;49.578;11.012;2022-08-04T12:42:27;1.9;;;1.6;;
13057;SDS011;6595;49.578;11.012;2022-08-04T12:44:23;1.9;;;1.6;;
13057;SDS011;6595;49.578;11.012;2022-08-04T12:46:24;1.7;;;1.6;;
13057;SDS011;6595;49.578;11.012;2022-08-04T12:48:24;1.7;;;1.6;;
13057;SDS011;6595;49.578;11.012;2022-08-04T12:50:24;1.7;;;1.6;;
13057;SDS011;6595;49.578;11.012;2022-08-04T12:52:24;3.6;;;1.5;;